sensor_id;sensor_type;location;lat;lon;timestamp;P1;durP1;ratioP1;P2;durP2;ratioP2
76127;SDS011;64873;50.102;14.434;2024-02-16T00:00:40;24.75;;;13.75;;
76127;SDS011;64873;50.102;14.434;2024-02-16T00:03:09;24.65;;;14.63;;
76127;SDS011;64873;50.102;14.434;2024-02-16T00:05:35;21.75;;;13.85;;
76127;SDS011;64873;50.102;14.434;2024-02-16T00:08:01;19.05;;;13.00;;
76127;SDS011;64873;50.102;14.434;2024-02-16T00:10:28;23.17;;;13.15;;
76127;SDS011;64873;50.102;14.434;2024-02-16T00:12:53;22.67;;;13.93;;
76127;SDS011;64873;50.102;14.434;2024-02-16T00:15:18;20.55;;;13.00;;
76127;SDS011;64873;50.102;14.434;2024-02-16T00:17:44;20.48;;;13.02;;
76127;SDS011;64873;50.102;14.434;2024-02-16T00:20:09;20.50;;;13.38;;
76127;SDS011;64873;50.102;14.434;2024-02-16T00:22:37;18.48;;;12.52;;
76127;SDS011;64873;50.102;14.434;2024-02-16T00:25:03;25.30;;;13.27;;
76127;SDS011;64873;50.102;14.434;2024-02-16T00:27:29;25.05;;;12.70;;
76127;SDS011;64873;50.102;14.434;2024-02-16T00:29:54;19.10;;;12.07;;
76127;SDS011;64873;50.102;14.434;2024-02-16T00:32:20;20.10;;;12.52;;
76127;SDS011;64873;50.102;14.434;2024-02-16T00:34:45;19.80;;;13.02;;
76127;SDS011;64873;50.102;14.434;2024-02-16T00:37:11;17.73;;;13.10;;
76127;SDS011;64873;50.102;14.434;2024-02-16T00:39:37;21.80;;;13.25;;
76127;SDS011;64873;50.102;14.434;2024-02-16T00:42:06;21.27;;;13.70;;
76127;SDS011;64873;50.102;14.434;2024-02-16T00:44:31;22.48;;;14.05;;
76127;SDS011;64873;50.102;14.434;2024-02-16T00:46:57;26.15;;;13.63;;
76127;SDS011;64873;50.102;14.434;2024-02-16T00:49:23;22.48;;;14.65;;
76127;SDS011;64873;50.102;14.434;2024-02-16T00:51:48;24.63;;;15.85;;
76127;SDS011;64873;50.102;14.434;2024-02-16T00:54:15;24.33;;;15.23;;
76127;SDS011;64873;50.102;14.434;2024-02-16T00:56:41;25.98;;;14.98;;
76127;SDS011;64873;50.102;14.434;2024-02-16T00:59:06;21.23;;;14.43;;
76127;SDS011;64873;50.102;14.434;2024-02-16T01:01:34;26.67;;;14.60;;
76127;SDS011;64873;50.102;14.434;2024-02-16T01:04:00;20.08;;;14.07;;
76127;SDS011;64873;50.102;14.434;2024-02-16T01:06:26;21.10;;;13.20;;
76127;SDS011;64873;50.102;14.434;2024-02-16T01:08:51;22.38;;;14.23;;
76127;SDS011;64873;50.102;14.434;2024-02-16T01:11:16;21.17;;;13.43;;
76127;SDS011;64873;50.102;14.434;2024-02-16T01:13:42;21.70;;;13.57;;
76127;SDS011;64873;50.102;14.434;2024-02-16T01:16:08;21.27;;;14.10;;
76127;SDS011;64873;50.102;14.434;2024-02-16T01:18:34;19.10;;;12.68;;
76127;SDS011;64873;50.102;14.434;2024-02-16T01:21:01;20.30;;;13.18;;
76127;SDS011;64873;50.102;14.434;2024-02-16T01:23:28;20.55;;;13.77;;
76127;SDS011;64873;50.102;14.434;2024-02-16T01:25:53;24.08;;;13.75;;
76127;SDS011;64873;50.102;14.434;2024-02-16T01:28:19;17.20;;;11.95;;
76127;SDS011;64873;50.102;14.434;2024-02-16T01:30:44;18.50;;;12.68;;
76127;SDS011;64873;50.102;14.434;2024-02-16T01:33:09;19.95;;;11.95;;
76127;SDS011;64873;50.102;14.434;2024-02-16T01:35:35;18.30;;;11.80;;
76127;SDS011;64873;50.102;14.434;2024-02-16T01:38:01;18.40;;;11.98;;
76127;SDS011;64873;50.102;14.434;2024-02-16T01:40:27;18.05;;;11.45;;
76127;SDS011;64873;50.102;14.434;2024-02-16T01:42:53;18.48;;;12.07;;
76127;SDS011;64873;50.102;14.434;2024-02-16T01:45:19;21.23;;;11.60;;
76127;SDS011;64873;50.102;14.434;2024-02-16T01:47:45;15.30;;;10.52;;
76127;SDS011;64873;50.102;14.434;2024-02-16T01:50:13;19.35;;;13.20;;
76127;SDS011;64873;50.102;14.434;2024-02-16T01:52:40;17.92;;;11.55;;
76127;SDS011;64873;50.102;14.434;2024-02-16T01:55:05;18.50;;;12.20;;
76127;SDS011;64873;50.102;14.434;2024-02-16T01:57:35;20.52;;;12.55;;
76127;SDS011;64873;50.102;14.434;2024-02-16T02:00:04;19.65;;;12.80;;
76127;SDS011;64873;50.102;14.434;2024-02-16T02:02:32;19.52;;;12.80;;
76127;SDS011;64873;50.102;14.434;2024-02-16T02:04:59;19.40;;;12.18;;
76127;SDS011;64873;50.102;14.434;2024-02-16T02:07:25;19.17;;;12.45;;
76127;SDS011;64873;50.102;14.434;2024-02-16T02:09:54;27.20;;;13.25;;
76127;SDS011;64873;50.102;14.434;2024-02-16T02:12:19;24.63;;;13.30;;
76127;SDS011;64873;50.102;14.434;2024-02-16T02:14:45;21.85;;;12.90;;
76127;SDS011;64873;50.102;14.434;2024-02-16T02:17:11;19.30;;;12.35;;
76127;SDS011;64873;50.102;14.434;2024-02-16T02:19:37;18.38;;;11.98;;
76127;SDS011;64873;50.102;14.434;2024-02-16T02:22:03;21.17;;;12.45;;
76127;SDS011;64873;50.102;14.434;2024-02-16T02:24:28;23.17;;;13.00;;
76127;SDS011;64873;50.102;14.434;2024-02-16T02:26:54;22.25;;;13.00;;
76127;SDS011;64873;50.102;14.434;2024-02-16T02:29:19;23.63;;;13.02;;
76127;SDS011;64873;50.102;14.434;2024-02-16T02:31:45;20.30;;;13.15;;
76127;SDS011;64873;50.102;14.434;2024-02-16T02:34:10;21.95;;;12.73;;
76127;SDS011;64873;50.102;14.434;2024-02-16T02:36:37;22.17;;;12.48;;
76127;SDS011;64873;50.102;14.434;2024-02-16T02:39:02;20.70;;;12.35;;
76127;SDS011;64873;50.102;14.434;2024-02-16T02:41:28;20.52;;;12.88;;
76127;SDS011;64873;50.102;14.434;2024-02-16T02:43:53;25.50;;;13.70;;
76127;SDS011;64873;50.102;14.434;2024-02-16T02:46:19;21.50;;;13.75;;
76127;SDS011;64873;50.102;14.434;2024-02-16T02:48:44;24.48;;;13.05;;
76127;SDS011;64873;50.102;14.434;2024-02-16T02:51:11;22.35;;;14.52;;
76127;SDS011;64873;50.102;14.434;2024-02-16T02:53:36;21.08;;;13.10;;
76127;SDS011;64873;50.102;14.434;2024-02-16T02:56:02;21.13;;;13.32;;
76127;SDS011;64873;50.102;14.434;2024-02-16T02:58:28;18.90;;;12.20;;
76127;SDS011;64873;50.102;14.434;2024-02-16T03:00:54;20.95;;;12.60;;
76127;SDS011;64873;50.102;14.434;2024-02-16T03:03:20;22.58;;;13.30;;
76127;SDS011;64873;50.102;14.434;2024-02-16T03:05:45;22.70;;;13.20;;
76127;SDS011;64873;50.102;14.434;2024-02-16T03:08:11;18.92;;;12.18;;
76127;SDS011;64873;50.102;14.434;2024-02-16T03:10:36;19.67;;;12.13;;
76127;SDS011;64873;50.102;14.434;2024-02-16T03:13:02;20.77;;;13.15;;
76127;SDS011;64873;50.102;14.434;2024-02-16T03:15:28;20.90;;;12.68;;
76127;SDS011;64873;50.102;14.434;2024-02-16T03:17:54;20.00;;;12.57;;
76127;SDS011;64873;50.102;14.434;2024-02-16T03:20:20;20.75;;;12.73;;
76127;SDS011;64873;50.102;14.434;2024-02-16T03:22:46;21.35;;;12.13;;
76127;SDS011;64873;50.102;14.434;2024-02-16T03:25:12;21.77;;;12.95;;
76127;SDS011;64873;50.102;14.434;2024-02-16T03:27:37;19.17;;;12.13;;
76127;SDS011;64873;50.102;14.434;2024-02-16T03:30:03;21.00;;;12.77;;
76127;SDS011;64873;50.102;14.434;2024-02-16T03:32:29;25.42;;;14.18;;
76127;SDS011;64873;50.102;14.434;2024-02-16T03:34:58;21.48;;;13.55;;
76127;SDS011;64873;50.102;14.434;2024-02-16T03:37:24;20.70;;;13.40;;
76127;SDS011;64873;50.102;14.434;2024-02-16T03:39:50;20.00;;;12.73;;
76127;SDS011;64873;50.102;14.434;2024-02-16T03:42:15;23.40;;;13.73;;
76127;SDS011;64873;50.102;14.434;2024-02-16T03:44:43;20.73;;;13.15;;
76127;SDS011;64873;50.102;14.434;2024-02-16T03:47:09;21.13;;;13.02;;
76127;SDS011;64873;50.102;14.434;2024-02-16T03:49:35;21.85;;;13.02;;
76127;SDS011;64873;50.102;14.434;2024-02-16T03:52:01;23.08;;;13.23;;
76127;SDS011;64873;50.102;14.434;2024-02-16T03:54:26;24.92;;;14.38;;
76127;SDS011;64873;50.102;14.434;2024-02-16T03:56:54;22.67;;;14.00;;
76127;SDS011;64873;50.102;14.434;2024-02-16T03:59:20;23.65;;;14.95;;
76127;SDS011;64873;50.102;14.434;2024-02-16T04:01:46;28.75;;;16.05;;
76127;SDS011;64873;50.102;14.434;2024-02-16T04:04:11;30.75;;;16.58;;
76127;SDS011;64873;50.102;14.434;2024-02-16T04:06:37;29.65;;;16.73;;
76127;SDS011;64873;50.102;14.434;2024-02-16T04:09:03;28.23;;;14.55;;
76127;SDS011;64873;50.102;14.434;2024-02-16T04:11:31;28.90;;;16.08;;
76127;SDS011;64873;50.102;14.434;2024-02-16T04:13:57;28.08;;;16.25;;
76127;SDS011;64873;50.102;14.434;2024-02-16T04:16:23;25.73;;;15.98;;
76127;SDS011;64873;50.102;14.434;2024-02-16T04:18:49;28.38;;;17.50;;
76127;SDS011;64873;50.102;14.434;2024-02-16T04:21:18;30.40;;;18.15;;
76127;SDS011;64873;50.102;14.434;2024-02-16T04:23:44;28.15;;;15.98;;
76127;SDS011;64873;50.102;14.434;2024-02-16T04:26:09;32.40;;;16.90;;
76127;SDS011;64873;50.102;14.434;2024-02-16T04:28:35;33.05;;;17.02;;
76127;SDS011;64873;50.102;14.434;2024-02-16T04:31:01;31.13;;;16.63;;
76127;SDS011;64873;50.102;14.434;2024-02-16T04:33:27;31.85;;;16.25;;
76127;SDS011;64873;50.102;14.434;2024-02-16T04:35:52;31.92;;;17.05;;
76127;SDS011;64873;50.102;14.434;2024-02-16T04:38:18;28.67;;;15.95;;
76127;SDS011;64873;50.102;14.434;2024-02-16T04:40:43;26.63;;;12.25;;
76127;SDS011;64873;50.102;14.434;2024-02-16T04:43:09;23.88;;;13.07;;
76127;SDS011;64873;50.102;14.434;2024-02-16T04:45:35;26.52;;;14.00;;
76127;SDS011;64873;50.102;14.434;2024-02-16T04:48:06;21.40;;;13.00;;
76127;SDS011;64873;50.102;14.434;2024-02-16T04:50:34;24.42;;;13.02;;
76127;SDS011;64873;50.102;14.434;2024-02-16T04:53:00;20.75;;;12.00;;
76127;SDS011;64873;50.102;14.434;2024-02-16T04:55:28;23.88;;;14.07;;
76127;SDS011;64873;50.102;14.434;2024-02-16T04:57:55;19.70;;;13.25;;
76127;SDS011;64873;50.102;14.434;2024-02-16T05:00:21;23.52;;;14.68;;
76127;SDS011;64873;50.102;14.434;2024-02-16T05:02:47;22.85;;;13.68;;
76127;SDS011;64873;50.102;14.434;2024-02-16T05:05:12;25.55;;;14.90;;
76127;SDS011;64873;50.102;14.434;2024-02-16T05:07:38;23.92;;;14.35;;
76127;SDS011;64873;50.102;14.434;2024-02-16T05:10:03;23.42;;;14.40;;
76127;SDS011;64873;50.102;14.434;2024-02-16T05:12:33;26.30;;;15.23;;
76127;SDS011;64873;50.102;14.434;2024-02-16T05:14:59;29.90;;;16.30;;
76127;SDS011;64873;50.102;14.434;2024-02-16T05:17:24;23.05;;;14.90;;
76127;SDS011;64873;50.102;14.434;2024-02-16T05:19:50;27.48;;;15.55;;
76127;SDS011;64873;50.102;14.434;2024-02-16T05:22:15;26.98;;;15.95;;
76127;SDS011;64873;50.102;14.434;2024-02-16T05:24:43;23.83;;;14.98;;
76127;SDS011;64873;50.102;14.434;2024-02-16T05:27:09;27.10;;;16.55;;
76127;SDS011;64873;50.102;14.434;2024-02-16T05:29:35;32.42;;;17.98;;
76127;SDS011;64873;50.102;14.434;2024-02-16T05:32:01;28.48;;;16.50;;
76127;SDS011;64873;50.102;14.434;2024-02-16T05:34:26;29.60;;;16.55;;
76127;SDS011;64873;50.102;14.434;2024-02-16T05:36:57;32.22;;;17.33;;
76127;SDS011;64873;50.102;14.434;2024-02-16T05:39:22;28.15;;;17.10;;
76127;SDS011;64873;50.102;14.434;2024-02-16T05:41:56;31.88;;;18.65;;
76127;SDS011;64873;50.102;14.434;2024-02-16T05:44:22;30.90;;;18.23;;
76127;SDS011;64873;50.102;14.434;2024-02-16T05:46:47;36.65;;;19.20;;
76127;SDS011;64873;50.102;14.434;2024-02-16T05:49:13;33.00;;;18.65;;
76127;SDS011;64873;50.102;14.434;2024-02-16T05:51:40;36.83;;;18.38;;
76127;SDS011;64873;50.102;14.434;2024-02-16T05:54:06;35.08;;;19.40;;
76127;SDS011;64873;50.102;14.434;2024-02-16T05:56:33;25.42;;;15.18;;
76127;SDS011;64873;50.102;14.434;2024-02-16T05:58:59;23.27;;;14.77;;
76127;SDS011;64873;50.102;14.434;2024-02-16T06:01:25;24.50;;;13.40;;
76127;SDS011;64873;50.102;14.434;2024-02-16T06:03:51;20.25;;;13.10;;
76127;SDS011;64873;50.102;14.434;2024-02-16T06:06:18;23.55;;;13.75;;
76127;SDS011;64873;50.102;14.434;2024-02-16T06:08:44;24.90;;;14.18;;
76127;SDS011;64873;50.102;14.434;2024-02-16T06:11:10;23.60;;;13.95;;
76127;SDS011;64873;50.102;14.434;2024-02-16T06:13:35;22.88;;;13.55;;
76127;SDS011;64873;50.102;14.434;2024-02-16T06:16:00;24.17;;;14.95;;
76127;SDS011;64873;50.102;14.434;2024-02-16T06:18:27;30.52;;;16.60;;
76127;SDS011;64873;50.102;14.434;2024-02-16T06:20:54;32.15;;;17.75;;
76127;SDS011;64873;50.102;14.434;2024-02-16T06:23:20;32.78;;;18.98;;
76127;SDS011;64873;50.102;14.434;2024-02-16T06:25:45;32.80;;;18.02;;
76127;SDS011;64873;50.102;14.434;2024-02-16T06:28:11;27.95;;;16.40;;
76127;SDS011;64873;50.102;14.434;2024-02-16T06:30:36;32.13;;;16.70;;
76127;SDS011;64873;50.102;14.434;2024-02-16T06:33:02;32.70;;;19.10;;
76127;SDS011;64873;50.102;14.434;2024-02-16T06:35:28;29.80;;;16.33;;
76127;SDS011;64873;50.102;14.434;2024-02-16T06:37:54;33.53;;;16.40;;
76127;SDS011;64873;50.102;14.434;2024-02-16T06:40:20;24.67;;;15.57;;
76127;SDS011;64873;50.102;14.434;2024-02-16T06:42:46;27.17;;;16.00;;
76127;SDS011;64873;50.102;14.434;2024-02-16T06:45:11;34.85;;;16.63;;
76127;SDS011;64873;50.102;14.434;2024-02-16T06:47:37;26.25;;;15.90;;
76127;SDS011;64873;50.102;14.434;2024-02-16T06:50:02;27.58;;;16.60;;
76127;SDS011;64873;50.102;14.434;2024-02-16T06:52:27;28.67;;;16.63;;
76127;SDS011;64873;50.102;14.434;2024-02-16T06:54:53;27.75;;;17.02;;
76127;SDS011;64873;50.102;14.434;2024-02-16T06:57:18;29.92;;;17.15;;
76127;SDS011;64873;50.102;14.434;2024-02-16T06:59:45;33.83;;;18.60;;
76127;SDS011;64873;50.102;14.434;2024-02-16T07:02:11;38.83;;;17.83;;
76127;SDS011;64873;50.102;14.434;2024-02-16T07:04:41;36.78;;;18.27;;
76127;SDS011;64873;50.102;14.434;2024-02-16T07:07:06;37.53;;;17.92;;
76127;SDS011;64873;50.102;14.434;2024-02-16T07:09:33;32.38;;;16.58;;
76127;SDS011;64873;50.102;14.434;2024-02-16T07:11:58;31.77;;;15.80;;
76127;SDS011;64873;50.102;14.434;2024-02-16T07:14:24;31.38;;;16.23;;
76127;SDS011;64873;50.102;14.434;2024-02-16T07:16:49;29.70;;;16.42;;
76127;SDS011;64873;50.102;14.434;2024-02-16T07:19:15;33.63;;;16.48;;
76127;SDS011;64873;50.102;14.434;2024-02-16T07:21:40;29.17;;;16.40;;
76127;SDS011;64873;50.102;14.434;2024-02-16T07:24:06;32.78;;;16.13;;
76127;SDS011;64873;50.102;14.434;2024-02-16T07:26:31;27.40;;;16.58;;
76127;SDS011;64873;50.102;14.434;2024-02-16T07:28:58;26.30;;;15.45;;
76127;SDS011;64873;50.102;14.434;2024-02-16T07:31:23;29.70;;;16.50;;
76127;SDS011;64873;50.102;14.434;2024-02-16T07:33:49;32.33;;;17.75;;
76127;SDS011;64873;50.102;14.434;2024-02-16T07:36:14;31.80;;;17.98;;
76127;SDS011;64873;50.102;14.434;2024-02-16T07:38:40;41.17;;;17.77;;
76127;SDS011;64873;50.102;14.434;2024-02-16T07:41:05;33.88;;;17.95;;
76127;SDS011;64873;50.102;14.434;2024-02-16T07:43:32;31.15;;;17.77;;
76127;SDS011;64873;50.102;14.434;2024-02-16T07:45:57;34.53;;;17.65;;
76127;SDS011;64873;50.102;14.434;2024-02-16T07:48:23;34.45;;;17.63;;
76127;SDS011;64873;50.102;14.434;2024-02-16T07:50:48;35.20;;;17.23;;
76127;SDS011;64873;50.102;14.434;2024-02-16T07:53:17;34.47;;;18.20;;
76127;SDS011;64873;50.102;14.434;2024-02-16T07:55:42;39.78;;;18.38;;
76127;SDS011;64873;50.102;14.434;2024-02-16T07:58:08;35.70;;;17.30;;
76127;SDS011;64873;50.102;14.434;2024-02-16T08:00:34;30.98;;;17.48;;
76127;SDS011;64873;50.102;14.434;2024-02-16T08:02:59;41.78;;;17.60;;
76127;SDS011;64873;50.102;14.434;2024-02-16T08:05:26;36.15;;;18.92;;
76127;SDS011;64873;50.102;14.434;2024-02-16T08:07:51;35.72;;;17.77;;
76127;SDS011;64873;50.102;14.434;2024-02-16T08:10:21;29.88;;;17.40;;
76127;SDS011;64873;50.102;14.434;2024-02-16T08:12:46;35.10;;;18.45;;
76127;SDS011;64873;50.102;14.434;2024-02-16T08:15:12;33.63;;;19.63;;
76127;SDS011;64873;50.102;14.434;2024-02-16T08:17:39;32.72;;;18.27;;
76127;SDS011;64873;50.102;14.434;2024-02-16T08:20:05;30.08;;;17.33;;
76127;SDS011;64873;50.102;14.434;2024-02-16T08:22:31;31.85;;;16.50;;
76127;SDS011;64873;50.102;14.434;2024-02-16T08:24:57;29.63;;;16.95;;
76127;SDS011;64873;50.102;14.434;2024-02-16T08:27:24;30.05;;;17.45;;
76127;SDS011;64873;50.102;14.434;2024-02-16T08:29:50;32.30;;;16.77;;
76127;SDS011;64873;50.102;14.434;2024-02-16T08:32:17;27.65;;;16.42;;
76127;SDS011;64873;50.102;14.434;2024-02-16T08:34:42;35.33;;;17.38;;
76127;SDS011;64873;50.102;14.434;2024-02-16T08:37:09;30.73;;;16.60;;
76127;SDS011;64873;50.102;14.434;2024-02-16T08:39:34;31.27;;;17.45;;
76127;SDS011;64873;50.102;14.434;2024-02-16T08:42:02;30.60;;;17.50;;
76127;SDS011;64873;50.102;14.434;2024-02-16T08:44:28;26.70;;;16.27;;
76127;SDS011;64873;50.102;14.434;2024-02-16T08:46:53;30.05;;;17.65;;
76127;SDS011;64873;50.102;14.434;2024-02-16T08:49:19;31.00;;;17.10;;
76127;SDS011;64873;50.102;14.434;2024-02-16T08:51:45;25.40;;;15.38;;
76127;SDS011;64873;50.102;14.434;2024-02-16T08:54:10;29.42;;;15.52;;
76127;SDS011;64873;50.102;14.434;2024-02-16T08:56:36;27.27;;;15.73;;
76127;SDS011;64873;50.102;14.434;2024-02-16T08:59:04;25.60;;;15.18;;
76127;SDS011;64873;50.102;14.434;2024-02-16T09:01:33;27.80;;;15.98;;
76127;SDS011;64873;50.102;14.434;2024-02-16T09:04:00;28.95;;;16.63;;
76127;SDS011;64873;50.102;14.434;2024-02-16T09:06:29;25.58;;;15.07;;
76127;SDS011;64873;50.102;14.434;2024-02-16T09:08:54;26.85;;;16.13;;
76127;SDS011;64873;50.102;14.434;2024-02-16T09:11:20;27.67;;;15.63;;
76127;SDS011;64873;50.102;14.434;2024-02-16T09:13:46;25.35;;;15.00;;
76127;SDS011;64873;50.102;14.434;2024-02-16T09:16:12;26.75;;;16.25;;
76127;SDS011;64873;50.102;14.434;2024-02-16T09:18:38;25.90;;;16.08;;
76127;SDS011;64873;50.102;14.434;2024-02-16T09:21:04;23.98;;;14.25;;
76127;SDS011;64873;50.102;14.434;2024-02-16T09:23:30;26.10;;;15.32;;
76127;SDS011;64873;50.102;14.434;2024-02-16T09:25:56;26.23;;;15.52;;
76127;SDS011;64873;50.102;14.434;2024-02-16T09:28:23;25.40;;;15.07;;
76127;SDS011;64873;50.102;14.434;2024-02-16T09:30:48;31.10;;;14.52;;
76127;SDS011;64873;50.102;14.434;2024-02-16T09:33:14;36.55;;;17.48;;
76127;SDS011;64873;50.102;14.434;2024-02-16T09:35:39;33.00;;;16.42;;
76127;SDS011;64873;50.102;14.434;2024-02-16T09:38:06;42.63;;;15.50;;
76127;SDS011;64873;50.102;14.434;2024-02-16T09:40:33;26.63;;;14.50;;
76127;SDS011;64873;50.102;14.434;2024-02-16T09:42:58;42.53;;;15.77;;
76127;SDS011;64873;50.102;14.434;2024-02-16T09:45:24;35.95;;;15.52;;
76127;SDS011;64873;50.102;14.434;2024-02-16T09:47:51;28.13;;;13.93;;
76127;SDS011;64873;50.102;14.434;2024-02-16T09:50:20;39.30;;;16.45;;
76127;SDS011;64873;50.102;14.434;2024-02-16T09:52:46;41.38;;;16.20;;
76127;SDS011;64873;50.102;14.434;2024-02-16T09:55:14;33.35;;;14.43;;
76127;SDS011;64873;50.102;14.434;2024-02-16T09:57:40;28.58;;;15.70;;
76127;SDS011;64873;50.102;14.434;2024-02-16T10:00:05;23.45;;;13.98;;
76127;SDS011;64873;50.102;14.434;2024-02-16T10:02:42;23.25;;;14.15;;
76127;SDS011;64873;50.102;14.434;2024-02-16T10:05:14;26.13;;;15.07;;
76127;SDS011;64873;50.102;14.434;2024-02-16T10:07:42;25.85;;;14.32;;
76127;SDS011;64873;50.102;14.434;2024-02-16T10:13:06;26.75;;;15.65;;
76127;SDS011;64873;50.102;14.434;2024-02-16T10:15:33;25.70;;;15.13;;
76127;SDS011;64873;50.102;14.434;2024-02-16T10:18:00;23.65;;;14.05;;
76127;SDS011;64873;50.102;14.434;2024-02-16T10:20:26;32.05;;;15.15;;
76127;SDS011;64873;50.102;14.434;2024-02-16T10:23:07;21.10;;;13.20;;
76127;SDS011;64873;50.102;14.434;2024-02-16T10:25:38;19.73;;;13.27;;
76127;SDS011;64873;50.102;14.434;2024-02-16T10:28:06;22.20;;;14.03;;
76127;SDS011;64873;50.102;14.434;2024-02-16T10:30:36;21.25;;;13.45;;
76127;SDS011;64873;50.102;14.434;2024-02-16T10:33:06;25.35;;;14.07;;
76127;SDS011;64873;50.102;14.434;2024-02-16T10:35:35;42.63;;;13.93;;
76127;SDS011;64873;50.102;14.434;2024-02-16T10:38:03;19.77;;;12.82;;
76127;SDS011;64873;50.102;14.434;2024-02-16T10:40:40;22.92;;;14.07;;
76127;SDS011;64873;50.102;14.434;2024-02-16T10:43:07;27.65;;;14.35;;
76127;SDS011;64873;50.102;14.434;2024-02-16T10:45:34;20.95;;;13.40;;
76127;SDS011;64873;50.102;14.434;2024-02-16T10:48:03;23.05;;;13.27;;
76127;SDS011;64873;50.102;14.434;2024-02-16T10:50:30;21.27;;;13.75;;
76127;SDS011;64873;50.102;14.434;2024-02-16T10:52:58;22.55;;;14.60;;
76127;SDS011;64873;50.102;14.434;2024-02-16T10:55:28;21.88;;;13.20;;
76127;SDS011;64873;50.102;14.434;2024-02-16T10:57:55;21.60;;;14.02;;
76127;SDS011;64873;50.102;14.434;2024-02-16T11:00:22;26.25;;;13.32;;
76127;SDS011;64873;50.102;14.434;2024-02-16T11:02:58;23.58;;;14.63;;
76127;SDS011;64873;50.102;14.434;2024-02-16T11:05:36;22.17;;;14.38;;
76127;SDS011;64873;50.102;14.434;2024-02-16T11:08:11;24.67;;;14.43;;
76127;SDS011;64873;50.102;14.434;2024-02-16T11:10:38;24.13;;;13.27;;
76127;SDS011;64873;50.102;14.434;2024-02-16T11:13:04;24.38;;;15.23;;
76127;SDS011;64873;50.102;14.434;2024-02-16T11:15:30;24.08;;;14.18;;
76127;SDS011;64873;50.102;14.434;2024-02-16T11:17:57;26.95;;;14.43;;
76127;SDS011;64873;50.102;14.434;2024-02-16T11:20:25;19.48;;;13.05;;
76127;SDS011;64873;50.102;14.434;2024-02-16T11:22:53;21.67;;;13.60;;
76127;SDS011;64873;50.102;14.434;2024-02-16T11:25:31;20.67;;;13.00;;
76127;SDS011;64873;50.102;14.434;2024-02-16T11:27:58;24.02;;;14.70;;
76127;SDS011;64873;50.102;14.434;2024-02-16T11:30:24;25.55;;;15.18;;
76127;SDS011;64873;50.102;14.434;2024-02-16T11:32:50;33.70;;;16.23;;
76127;SDS011;64873;50.102;14.434;2024-02-16T11:35:16;22.48;;;14.23;;
76127;SDS011;64873;50.102;14.434;2024-02-16T11:37:42;97.45;;;31.38;;
76127;SDS011;64873;50.102;14.434;2024-02-16T11:40:11;36.85;;;17.92;;
76127;SDS011;64873;50.102;14.434;2024-02-16T11:42:37;28.77;;;15.65;;
76127;SDS011;64873;50.102;14.434;2024-02-16T11:45:02;26.83;;;15.40;;
76127;SDS011;64873;50.102;14.434;2024-02-16T11:47:28;24.52;;;15.07;;
76127;SDS011;64873;50.102;14.434;2024-02-16T11:52:39;22.27;;;14.23;;
76127;SDS011;64873;50.102;14.434;2024-02-16T11:55:07;23.27;;;14.85;;
76127;SDS011;64873;50.102;14.434;2024-02-16T11:57:33;24.35;;;13.60;;
76127;SDS011;64873;50.102;14.434;2024-02-16T12:00:06;28.38;;;15.63;;
76127;SDS011;64873;50.102;14.434;2024-02-16T12:02:36;25.80;;;13.63;;
76127;SDS011;64873;50.102;14.434;2024-02-16T12:05:02;25.10;;;14.35;;
76127;SDS011;64873;50.102;14.434;2024-02-16T12:07:28;23.08;;;14.02;;
76127;SDS011;64873;50.102;14.434;2024-02-16T12:09:55;21.88;;;13.35;;
76127;SDS011;64873;50.102;14.434;2024-02-16T12:12:26;25.75;;;13.98;;
76127;SDS011;64873;50.102;14.434;2024-02-16T12:14:53;22.90;;;13.65;;
76127;SDS011;64873;50.102;14.434;2024-02-16T12:17:19;21.88;;;13.70;;
76127;SDS011;64873;50.102;14.434;2024-02-16T12:19:45;26.17;;;16.65;;
76127;SDS011;64873;50.102;14.434;2024-02-16T12:22:16;22.83;;;13.65;;
76127;SDS011;64873;50.102;14.434;2024-02-16T12:24:42;23.10;;;14.43;;
76127;SDS011;64873;50.102;14.434;2024-02-16T12:27:09;24.08;;;14.68;;
76127;SDS011;64873;50.102;14.434;2024-02-16T12:29:34;27.83;;;14.07;;
76127;SDS011;64873;50.102;14.434;2024-02-16T12:32:00;25.08;;;14.18;;
76127;SDS011;64873;50.102;14.434;2024-02-16T12:34:26;25.08;;;15.80;;
76127;SDS011;64873;50.102;14.434;2024-02-16T12:36:51;25.55;;;15.30;;
76127;SDS011;64873;50.102;14.434;2024-02-16T12:39:17;22.73;;;13.38;;
76127;SDS011;64873;50.102;14.434;2024-02-16T12:41:42;27.58;;;14.57;;
76127;SDS011;64873;50.102;14.434;2024-02-16T12:44:08;23.85;;;14.40;;
76127;SDS011;64873;50.102;14.434;2024-02-16T12:46:34;26.05;;;15.18;;
76127;SDS011;64873;50.102;14.434;2024-02-16T12:48:59;26.88;;;14.27;;
76127;SDS011;64873;50.102;14.434;2024-02-16T12:51:25;22.58;;;14.63;;
76127;SDS011;64873;50.102;14.434;2024-02-16T12:53:50;23.65;;;14.43;;
76127;SDS011;64873;50.102;14.434;2024-02-16T12:56:16;24.80;;;14.75;;
76127;SDS011;64873;50.102;14.434;2024-02-16T12:58:41;27.23;;;14.32;;
76127;SDS011;64873;50.102;14.434;2024-02-16T13:01:07;23.00;;;13.32;;
76127;SDS011;64873;50.102;14.434;2024-02-16T13:03:36;21.52;;;13.85;;
76127;SDS011;64873;50.102;14.434;2024-02-16T13:06:02;21.27;;;13.82;;
76127;SDS011;64873;50.102;14.434;2024-02-16T13:08:28;23.10;;;14.13;;
76127;SDS011;64873;50.102;14.434;2024-02-16T13:10:55;23.83;;;13.93;;
76127;SDS011;64873;50.102;14.434;2024-02-16T13:13:21;26.20;;;15.38;;
76127;SDS011;64873;50.102;14.434;2024-02-16T13:15:47;22.08;;;13.55;;
76127;SDS011;64873;50.102;14.434;2024-02-16T13:18:13;23.40;;;13.65;;
76127;SDS011;64873;50.102;14.434;2024-02-16T13:20:41;24.48;;;14.13;;
76127;SDS011;64873;50.102;14.434;2024-02-16T13:23:08;22.45;;;14.35;;
76127;SDS011;64873;50.102;14.434;2024-02-16T13:25:34;22.48;;;13.60;;
76127;SDS011;64873;50.102;14.434;2024-02-16T13:28:00;21.25;;;13.80;;
76127;SDS011;64873;50.102;14.434;2024-02-16T13:30:25;21.63;;;13.45;;
76127;SDS011;64873;50.102;14.434;2024-02-16T13:32:52;25.23;;;14.25;;
76127;SDS011;64873;50.102;14.434;2024-02-16T13:35:18;22.92;;;14.25;;
76127;SDS011;64873;50.102;14.434;2024-02-16T13:37:44;20.92;;;12.63;;
76127;SDS011;64873;50.102;14.434;2024-02-16T13:40:09;23.60;;;13.73;;
76127;SDS011;64873;50.102;14.434;2024-02-16T13:42:41;21.85;;;13.35;;
76127;SDS011;64873;50.102;14.434;2024-02-16T13:45:07;20.63;;;12.77;;
76127;SDS011;64873;50.102;14.434;2024-02-16T13:47:33;21.63;;;13.80;;
76127;SDS011;64873;50.102;14.434;2024-02-16T13:49:59;21.40;;;12.35;;
76127;SDS011;64873;50.102;14.434;2024-02-16T13:52:25;22.52;;;13.77;;
76127;SDS011;64873;50.102;14.434;2024-02-16T13:54:51;23.17;;;13.80;;
76127;SDS011;64873;50.102;14.434;2024-02-16T13:57:17;27.05;;;15.38;;
76127;SDS011;64873;50.102;14.434;2024-02-16T13:59:42;23.92;;;13.85;;
76127;SDS011;64873;50.102;14.434;2024-02-16T14:02:08;27.70;;;14.00;;
76127;SDS011;64873;50.102;14.434;2024-02-16T14:04:35;21.88;;;13.50;;
76127;SDS011;64873;50.102;14.434;2024-02-16T14:07:01;20.45;;;12.55;;
76127;SDS011;64873;50.102;14.434;2024-02-16T14:09:26;23.23;;;13.02;;